Michel Dsr — FLTE — position and weather

sailwx.info

Track history (hours):
 
Tides and Currents Weather Stations Pressure Air Temp Water Temp Dewpoint Dewpoint Depression Visibility Wind Speed Wind Dir Waves Ship Positions

Michel Dsr

Last reported at 2017-Jul-20 22:31 UTC. Time now 2017-Jul-20 22:34 UTC.
Position N 47°18' W 002°07'.

Length 80 m; draft 6 m.

Type: Dredging. MMSI: 228344700.

Date/timePositionNaut miles runAvg speedWind from/ knotsBaromVisibWave heightAir tempDewpointWater temp
2017-Jul-20 22:31N 47°18' W 002°07'0 0.0
2017-Jul-20 22:00N 47°18' W 002°07'0 0.2
2017-Jul-20 21:30N 47°18' W 002°07'4 7.4
2017-Jul-20 21:00N 47°18' W 002°02'510.3
2017-Jul-20 20:30N 47°17' W 001°54'5 9.4
2017-Jul-20 20:00N 47°13' W 001°49'510.7
2017-Jul-20 19:30N 47°12' W 001°42'3 5.2
2017-Jul-20 19:00N 47°12' W 001°38'0 0.0
2017-Jul-20 18:31N 47°12' W 001°38'0 0.0
2017-Jul-20 18:01N 47°12' W 001°38'0 0.0
2017-Jul-20 17:30N 47°12' W 001°38'0 0.0
2017-Jul-20 17:00N 47°12' W 001°38'0 0.0
2017-Jul-20 16:30N 47°12' W 001°38'0 0.9
2017-Jul-20 16:00N 47°11' W 001°39'4 8.0
2017-Jul-20 15:30N 47°12' W 001°44'5 9.8
2017-Jul-20 15:00N 47°15' W 001°51'1111.3
2017-Jul-20 14:00N 47°18' W 002°07'611.6
2017-Jul-20 13:30N 47°15' W 002°14'611.7
2017-Jul-20 13:00N 47°10' W 002°18'4 8.7
2017-Jul-20 12:30N 47°06' W 002°21'1 1.4
2017-Jul-20 11:59N 47°06' W 002°20'1 1.7
2017-Jul-20 11:30N 47°05' W 002°21'1 0.7
2017-Jul-20 10:34N 47°06' W 002°22'0 3.2
2017-Jul-20 10:30N 47°06' W 002°22'0 0.3
2017-Jul-20 09:40N 47°06' W 002°22'0 2.6
2017-Jul-20 09:30N 47°06' W 002°22'0 0.6
2017-Jul-20 08:52N 47°06' W 002°22'1 0.6
2017-Jul-20 08:03N 47°06' W 002°21'0 8.9
2017-Jul-20 08:00N 47°07' W 002°21'4 7.4
2017-Jul-20 07:30N 47°10' W 002°19'612.5
2017-Jul-20 07:00N 47°15' W 002°13'2 3.2
2017-Jul-20 06:30N 47°16' W 002°12'0 0.0
2017-Jul-20 06:00N 47°16' W 002°12'0 0.4
2017-Jul-20 05:30N 47°17' W 002°12'0 0.3
2017-Jul-20 05:00N 47°17' W 002°12'0 0.0
2017-Jul-20 04:30N 47°17' W 002°12'0 0.0
2017-Jul-20 04:00N 47°17' W 002°12'0 0.0
2017-Jul-20 03:30N 47°17' W 002°12'0 0.0
2017-Jul-20 03:00N 47°17' W 002°12'0 0.0
2017-Jul-20 02:30N 47°17' W 002°12'0 0.0
2017-Jul-20 02:00N 47°17' W 002°12'0 0.0
2017-Jul-20 01:30N 47°17' W 002°12'0 0.0
2017-Jul-20 01:00N 47°17' W 002°12'0 0.0
2017-Jul-20 00:30N 47°17' W 002°12'0 0.0
2017-Jul-20 00:00N 47°17' W 002°12'0 0.0
2017-Jul-19 23:30N 47°17' W 002°12'0 0.0
2017-Jul-19 23:00N 47°17' W 002°12'0 0.0
2017-Jul-19 22:30N 47°17' W 002°12'0 0.0
2017-Jul-19 22:00N 47°17' W 002°12'0 0.0
2017-Jul-19 21:30N 47°17' W 002°12'0 0.0
2017-Jul-19 21:00N 47°17' W 002°12'0 0.0
2017-Jul-19 20:30N 47°17' W 002°12'0 0.0
2017-Jul-19 20:00N 47°17' W 002°12'0 0.0
2017-Jul-19 19:30N 47°17' W 002°12'0 0.0
2017-Jul-19 19:00N 47°17' W 002°12'0 0.0
2017-Jul-19 18:30N 47°17' W 002°12'0 0.0
2017-Jul-19 18:01N 47°17' W 002°12'0 0.0
2017-Jul-19 17:30N 47°17' W 002°12'0 0.0
2017-Jul-19 17:00N 47°17' W 002°12'0 0.0
2017-Jul-19 16:30N 47°17' W 002°12'0 0.0
2017-Jul-19 16:00N 47°17' W 002°12'0 0.0
2017-Jul-19 15:30N 47°17' W 002°12'0 0.0
2017-Jul-19 15:00N 47°17' W 002°12'0 0.0
2017-Jul-19 14:30N 47°17' W 002°12'0 0.0
2017-Jul-19 14:00N 47°17' W 002°12'0 0.0
2017-Jul-19 13:30N 47°17' W 002°12'0 0.0
2017-Jul-19 13:00N 47°17' W 002°12'0 0.0
2017-Jul-19 12:30N 47°17' W 002°12'0 0.0
2017-Jul-19 12:00N 47°17' W 002°12'0 0.0
2017-Jul-19 11:30N 47°17' W 002°12'0 0.0
2017-Jul-19 11:00N 47°17' W 002°12'0 0.0
2017-Jul-19 10:30N 47°17' W 002°12'0 0.0
2017-Jul-19 10:00N 47°17' W 002°12'0 0.0
2017-Jul-19 09:30N 47°17' W 002°12'0 0.0
2017-Jul-19 09:00N 47°17' W 002°12'0 0.0
2017-Jul-19 08:30N 47°17' W 002°12'0 0.0
2017-Jul-19 08:00N 47°17' W 002°12'0 0.0
2017-Jul-19 07:30N 47°17' W 002°12'0 0.0
2017-Jul-19 07:00N 47°17' W 002°12'0 0.0
2017-Jul-19 06:30N 47°17' W 002°12'0 0.0
2017-Jul-19 06:00N 47°17' W 002°12'0 0.0
2017-Jul-19 05:30N 47°17' W 002°12'0 0.0
2017-Jul-19 05:01N 47°17' W 002°12'0 0.0
2017-Jul-19 04:30N 47°17' W 002°12'0 0.0
2017-Jul-19 04:00N 47°17' W 002°12'0 0.0
2017-Jul-19 03:30N 47°17' W 002°12'0 0.0
2017-Jul-19 03:00N 47°17' W 002°12'0 0.0
2017-Jul-19 02:30N 47°17' W 002°12'0 0.0
2017-Jul-19 02:00N 47°17' W 002°12'0 0.0
2017-Jul-19 01:30N 47°17' W 002°12'0 0.0
2017-Jul-19 01:00N 47°17' W 002°12'0 0.0
2017-Jul-19 00:30N 47°17' W 002°12'0 0.0
2017-Jul-19 00:00N 47°17' W 002°12'0 0.0
2017-Jul-18 23:30N 47°17' W 002°12'0 0.0
2017-Jul-18 23:00N 47°17' W 002°12'0 0.0
2017-Jul-18 22:30N 47°17' W 002°12'0 0.0
2017-Jul-18 22:00N 47°17' W 002°12'0 0.0
2017-Jul-18 21:30N 47°17' W 002°12'0 0.0
2017-Jul-18 21:00N 47°17' W 002°12'0 0.0
2017-Jul-18 20:30N 47°17' W 002°12'0 0.0
2017-Jul-18 20:00N 47°17' W 002°12'0 0.0
2017-Jul-18 19:31N 47°17' W 002°12'0 0.0
2017-Jul-18 19:00N 47°17' W 002°12'0 0.0
2017-Jul-18 18:30N 47°17' W 002°12'0 0.0
2017-Jul-18 18:00N 47°17' W 002°12'0 0.0
2017-Jul-18 17:30N 47°17' W 002°12'0 0.0
2017-Jul-18 17:00N 47°17' W 002°12'0 0.0
2017-Jul-18 16:30N 47°17' W 002°12'0 0.0
2017-Jul-18 16:00N 47°17' W 002°12'0 0.0
2017-Jul-18 15:30N 47°17' W 002°12'0 0.0
2017-Jul-18 14:57N 47°17' W 002°12'0 0.0
2017-Jul-18 13:58N 47°17' W 002°12'0 0.0
2017-Jul-18 05:36N 47°17' W 002°12'0 0.0
2017-Jul-18 05:22N 47°17' W 002°12'0 0.0
2017-Jul-18 05:00N 47°17' W 002°12'0 0.0
2017-Jul-18 02:26N 47°17' W 002°12'0 0.0
2017-Jul-18 02:00N 47°17' W 002°12'0 0.0
2017-Jul-18 01:30N 47°17' W 002°12'0 0.0
2017-Jul-18 01:00N 47°17' W 002°12'0 0.0
2017-Jul-18 00:30N 47°17' W 002°12'0 0.0
2017-Jul-18 00:00N 47°17' W 002°12'0 0.0
2017-Jul-17 23:31N 47°17' W 002°12'0 0.0
2017-Jul-17 23:01N 47°17' W 002°12'0 0.0
2017-Jul-17 22:31N 47°17' W 002°12'0 0.0
2017-Jul-17 22:01N 47°17' W 002°12'0 0.0
2017-Jul-17 21:30N 47°17' W 002°12'0 0.0
2017-Jul-17 21:00N 47°17' W 002°12'0 0.0
2017-Jul-17 20:30N 47°17' W 002°12'0 0.0
2017-Jul-17 19:59N 47°17' W 002°12'0 0.0
2017-Jul-17 19:28N 47°17' W 002°12'0 0.0
2017-Jul-17 19:00N 47°17' W 002°12'0 0.0
2017-Jul-17 18:28N 47°17' W 002°12'0 0.0
2017-Jul-17 17:56N 47°17' W 002°12'0 0.0
2017-Jul-17 17:17N 47°17' W 002°12'0 0.0
2017-Jul-17 15:11N 47°17' W 002°12'0 0.0
2017-Jul-17 14:56N 47°17' W 002°12'0 0.0
2017-Jul-17 14:30N 47°17' W 002°12'0 0.0
2017-Jul-17 14:00N 47°17' W 002°12'0 0.0
2017-Jul-17 13:29N 47°17' W 002°12'0 0.0
2017-Jul-17 12:57N 47°17' W 002°12'0 0.0
2017-Jul-17 12:26N 47°17' W 002°12'0 0.0
2017-Jul-17 11:59N 47°17' W 002°12'0 0.0
2017-Jul-17 11:29N 47°17' W 002°12'0 0.0
2017-Jul-17 10:59N 47°17' W 002°12'0 0.0
2017-Jul-17 10:29N 47°17' W 002°12'0 0.0
2017-Jul-17 10:00N 47°17' W 002°12'0 0.0
2017-Jul-17 09:30N 47°17' W 002°12'0 0.0
2017-Jul-17 09:00N 47°17' W 002°12'0 0.0
2017-Jul-17 08:30N 47°17' W 002°12'0 0.0
2017-Jul-17 08:00N 47°17' W 002°12'0 0.0
2017-Jul-17 07:30N 47°17' W 002°12'0 0.0
2017-Jul-17 07:00N 47°17' W 002°12'0 0.0
2017-Jul-17 06:30N 47°17' W 002°12'0 0.0
2017-Jul-17 06:00N 47°17' W 002°12'0 0.0
2017-Jul-17 05:30N 47°17' W 002°12'0 0.0
2017-Jul-17 05:00N 47°17' W 002°12'0 0.0
2017-Jul-17 04:30N 47°17' W 002°12'0 0.0
2017-Jul-17 04:00N 47°17' W 002°12'0 0.0
2017-Jul-17 03:30N 47°17' W 002°12'0 0.0
2017-Jul-17 03:00N 47°17' W 002°12'0 0.0
2017-Jul-17 02:30N 47°17' W 002°12'0 0.0
2017-Jul-17 02:00N 47°17' W 002°12'0 0.0
2017-Jul-17 01:30N 47°17' W 002°12'0 0.0
2017-Jul-17 01:00N 47°17' W 002°12'0 0.0
2017-Jul-17 00:30N 47°17' W 002°12'0 0.0
2017-Jul-17 00:00N 47°17' W 002°12'0 0.0
2017-Jul-16 23:30N 47°17' W 002°12'0 0.0
2017-Jul-16 23:00N 47°17' W 002°12'0 0.0
2017-Jul-16 22:30N 47°17' W 002°12'0 0.0
2017-Jul-16 22:00N 47°17' W 002°12'0 0.0
2017-Jul-16 21:30N 47°17' W 002°12'0 0.0
2017-Jul-16 21:00N 47°17' W 002°12'0 0.0
2017-Jul-16 20:30N 47°17' W 002°12'0 0.0
2017-Jul-16 20:00N 47°17' W 002°12'0 0.0
2017-Jul-16 19:30N 47°17' W 002°12'0 0.0
2017-Jul-16 19:00N 47°17' W 002°12'0 0.0
2017-Jul-16 18:30N 47°17' W 002°12'0 0.0
2017-Jul-16 18:00N 47°17' W 002°12'0 0.0
2017-Jul-16 17:30N 47°17' W 002°12'0 0.0
2017-Jul-16 17:00N 47°17' W 002°12'0 0.0
2017-Jul-16 16:30N 47°17' W 002°12'0 0.0
2017-Jul-16 16:00N 47°17' W 002°12'0 0.0
2017-Jul-16 15:30N 47°17' W 002°12'0 0.0
2017-Jul-16 15:00N 47°17' W 002°12'0 0.0
2017-Jul-16 14:30N 47°17' W 002°12'0 0.0
2017-Jul-16 14:00N 47°17' W 002°12'0 0.0
2017-Jul-16 13:30N 47°17' W 002°12'0 0.0
2017-Jul-16 13:00N 47°17' W 002°12'0 0.0
2017-Jul-16 12:30N 47°17' W 002°12'0 0.0
2017-Jul-16 12:00N 47°17' W 002°12'0 0.0
2017-Jul-16 11:30N 47°17' W 002°12'0 0.0
2017-Jul-16 11:00N 47°17' W 002°12'0 0.0
2017-Jul-16 10:30N 47°17' W 002°12'0 0.0
2017-Jul-16 10:00N 47°17' W 002°12'0 0.0
2017-Jul-16 09:30N 47°17' W 002°12'0 0.0
2017-Jul-16 09:00N 47°17' W 002°12'0 0.0
2017-Jul-16 08:30N 47°17' W 002°12'0 0.0
2017-Jul-16 08:00N 47°17' W 002°12'0 0.0
2017-Jul-16 07:30N 47°17' W 002°12'0 0.0
2017-Jul-16 07:00N 47°17' W 002°12'0 0.0
2017-Jul-16 06:31N 47°17' W 002°12'0 0.0
2017-Jul-16 06:00N 47°17' W 002°12'0 0.0
2017-Jul-16 05:30N 47°17' W 002°12'0 0.0
2017-Jul-16 05:00N 47°17' W 002°12'0 0.0
2017-Jul-16 04:30N 47°17' W 002°12'0 0.0
2017-Jul-16 04:00N 47°17' W 002°12'0 0.0
2017-Jul-16 03:30N 47°17' W 002°12'0 0.0
2017-Jul-16 03:00N 47°17' W 002°12'0 0.0
2017-Jul-16 02:30N 47°17' W 002°12'0 0.0
2017-Jul-16 02:00N 47°17' W 002°12'0 0.0
2017-Jul-16 01:30N 47°17' W 002°12'0 0.0
2017-Jul-16 01:00N 47°17' W 002°12'0 0.0
2017-Jul-16 00:30N 47°17' W 002°12'0 0.0
2017-Jul-15 23:58N 47°17' W 002°12'0 0.0
2017-Jul-15 23:30N 47°17' W 002°12'0 0.0
2017-Jul-15 23:00N 47°17' W 002°12'0 0.0
2017-Jul-15 22:30N 47°17' W 002°12'0 0.0
2017-Jul-15 22:00N 47°17' W 002°12'0 0.0
2017-Jul-15 21:30N 47°17' W 002°12'0 0.0
2017-Jul-15 21:00N 47°17' W 002°12'0 0.0
2017-Jul-15 20:30N 47°17' W 002°12'0 0.0
2017-Jul-15 20:00N 47°17' W 002°12'0 0.0
2017-Jul-15 19:30N 47°17' W 002°12'0 0.0
2017-Jul-15 19:00N 47°17' W 002°12'0 0.0
2017-Jul-15 18:30N 47°17' W 002°12'0 0.0
2017-Jul-15 18:00N 47°17' W 002°12'0 0.0
2017-Jul-15 17:30N 47°17' W 002°12'0 0.0
2017-Jul-15 17:00N 47°17' W 002°12'0 0.0
2017-Jul-15 16:30N 47°17' W 002°12'0 0.0
2017-Jul-15 16:00N 47°17' W 002°12'0 0.0
2017-Jul-15 15:30N 47°17' W 002°12'0 0.0
2017-Jul-15 15:00N 47°17' W 002°12'0 0.0
2017-Jul-15 14:00N 47°17' W 002°12'0 0.0
2017-Jul-15 13:30N 47°17' W 002°12'0 0.0
2017-Jul-15 13:00N 47°17' W 002°12'0 0.0
2017-Jul-15 12:30N 47°17' W 002°12'0 0.0
2017-Jul-15 12:00N 47°17' W 002°12'0 0.0
2017-Jul-15 11:30N 47°17' W 002°12'0 0.0
2017-Jul-15 11:00N 47°17' W 002°12'0 0.0
2017-Jul-15 10:30N 47°17' W 002°12'0 0.0
2017-Jul-15 10:00N 47°17' W 002°12'0 0.0
2017-Jul-15 09:30N 47°17' W 002°12'0 0.0
2017-Jul-15 09:01N 47°17' W 002°12'0 0.0
2017-Jul-15 08:30N 47°17' W 002°12'0 0.0
2017-Jul-15 08:01N 47°17' W 002°12'0 0.0
2017-Jul-15 07:30N 47°17' W 002°12'0 0.0
2017-Jul-15 07:01N 47°17' W 002°12'0 0.0
2017-Jul-15 06:31N 47°17' W 002°12'0 0.0
2017-Jul-15 06:00N 47°17' W 002°12'0 0.0
2017-Jul-15 05:31N 47°17' W 002°12'0 0.0
2017-Jul-15 05:00N 47°17' W 002°12'0 0.0
2017-Jul-15 04:30N 47°17' W 002°12'0 0.0
2017-Jul-15 04:01N 47°17' W 002°12'0 0.0
2017-Jul-15 03:30N 47°17' W 002°12'0 0.0
2017-Jul-15 03:00N 47°17' W 002°12'0 0.0
2017-Jul-15 02:30N 47°17' W 002°12'0 0.0
2017-Jul-15 02:00N 47°17' W 002°12'0 0.0
2017-Jul-15 01:30N 47°17' W 002°12'0 0.0
2017-Jul-15 01:01N 47°17' W 002°12'0 0.0
2017-Jul-15 00:31N 47°17' W 002°12'0 0.0
2017-Jul-15 00:00N 47°17' W 002°12'0 0.0
2017-Jul-14 23:31N 47°17' W 002°12'0 0.0
2017-Jul-14 23:01N 47°17' W 002°12'0 0.0
2017-Jul-14 22:31N 47°17' W 002°12'0 0.0
2017-Jul-14 22:01N 47°17' W 002°12'0 0.0
2017-Jul-14 21:31N 47°17' W 002°12'0 0.0
2017-Jul-14 21:01N 47°17' W 002°12'0 0.0
2017-Jul-14 20:31N 47°17' W 002°12'0 0.0
2017-Jul-14 20:01N 47°17' W 002°12'0 0.0
2017-Jul-14 19:31N 47°17' W 002°12'0 0.0
2017-Jul-14 19:01N 47°17' W 002°12'0 0.0
2017-Jul-14 18:31N 47°17' W 002°12'0 0.0
2017-Jul-14 18:01N 47°17' W 002°12'0 0.0
2017-Jul-14 17:30N 47°17' W 002°12'0 0.0
2017-Jul-14 17:01N 47°17' W 002°12'0 0.0
2017-Jul-14 16:31N 47°17' W 002°12'0 0.0
2017-Jul-14 16:01N 47°17' W 002°12'0 0.0
2017-Jul-14 15:31N 47°17' W 002°12'0 0.0
2017-Jul-14 15:00N 47°17' W 002°12'0 0.0
2017-Jul-14 14:30N 47°17' W 002°12'0 0.0
2017-Jul-14 14:00N 47°17' W 002°12'0 0.0
2017-Jul-14 13:31N 47°17' W 002°12'0 0.0
2017-Jul-14 13:01N 47°17' W 002°12'0 0.0
2017-Jul-14 12:30N 47°17' W 002°12'0 0.0
2017-Jul-14 12:00N 47°17' W 002°12'0 0.0
2017-Jul-14 11:30N 47°17' W 002°12'0 0.0
2017-Jul-14 11:00N 47°17' W 002°12'0 0.0
2017-Jul-14 10:30N 47°17' W 002°12'0 0.0
2017-Jul-14 10:00N 47°17' W 002°12'0 0.0
2017-Jul-14 09:30N 47°17' W 002°12'0 0.0
2017-Jul-14 09:00N 47°17' W 002°12'0 0.0
2017-Jul-14 08:31N 47°17' W 002°12'0 0.0
2017-Jul-14 08:00N 47°17' W 002°12'0 0.0
2017-Jul-14 07:31N 47°17' W 002°12'0 0.0
2017-Jul-14 07:00N 47°17' W 002°12'0 0.0
2017-Jul-14 06:30N 47°17' W 002°12'0 0.0
2017-Jul-14 06:00N 47°17' W 002°12'0 0.0
2017-Jul-14 05:30N 47°17' W 002°12'0 0.0
2017-Jul-14 05:00N 47°17' W 002°12'0 0.0
2017-Jul-14 04:30N 47°17' W 002°12'0 0.0
2017-Jul-14 04:00N 47°17' W 002°12'0 0.0
2017-Jul-14 03:31N 47°17' W 002°12'0 0.0
2017-Jul-14 03:00N 47°17' W 002°12'0 0.0
2017-Jul-14 02:30N 47°17' W 002°12'0 0.0
2017-Jul-14 02:00N 47°17' W 002°12'0 0.0
2017-Jul-14 01:30N 47°17' W 002°12'0 0.0
2017-Jul-14 01:00N 47°17' W 002°12'0 0.0
2017-Jul-14 00:30N 47°17' W 002°12'0 0.0
2017-Jul-14 00:00N 47°17' W 002°12'0 0.0
2017-Jul-13 23:30N 47°17' W 002°12'0 0.0
2017-Jul-13 23:00N 47°17' W 002°12'0 0.0
2017-Jul-13 22:31N 47°17' W 002°12'0 0.0
2017-Jul-13 22:00N 47°17' W 002°12'0 0.0
2017-Jul-13 21:30N 47°17' W 002°12'0 0.0
2017-Jul-13 21:00N 47°17' W 002°12'0 0.0
2017-Jul-13 20:30N 47°17' W 002°12'0 0.0
2017-Jul-13 20:01N 47°17' W 002°12'0 0.0
2017-Jul-13 19:30N 47°17' W 002°12'0 0.0
2017-Jul-13 19:00N 47°17' W 002°12'0 0.0
2017-Jul-13 18:30N 47°17' W 002°12'0 0.0
2017-Jul-13 18:00N 47°17' W 002°12'0 0.0
2017-Jul-13 17:30N 47°17' W 002°12'0 0.0
2017-Jul-13 17:00N 47°17' W 002°12'0 0.0
2017-Jul-13 16:30N 47°17' W 002°12'0 0.0
2017-Jul-13 16:00N 47°17' W 002°12'0 0.0
2017-Jul-13 15:30N 47°17' W 002°12'0 0.0
2017-Jul-13 15:00N 47°17' W 002°12'0 0.0
2017-Jul-13 14:30N 47°17' W 002°12'0 0.0
2017-Jul-13 14:00N 47°17' W 002°12'0 0.0
2017-Jul-13 13:30N 47°17' W 002°12'0 0.0
2017-Jul-13 13:00N 47°17' W 002°12'0 0.0
2017-Jul-13 12:30N 47°17' W 002°12'0 0.0
2017-Jul-13 12:00N 47°17' W 002°12'0 0.0
2017-Jul-13 11:30N 47°17' W 002°12'0 0.0
2017-Jul-13 11:00N 47°17' W 002°12'0 0.0
2017-Jul-13 10:30N 47°17' W 002°12'0 0.0
2017-Jul-13 10:00N 47°17' W 002°12'0 0.0
2017-Jul-13 09:30N 47°17' W 002°12'0 0.0
2017-Jul-13 09:00N 47°17' W 002°12'0 0.0
2017-Jul-13 08:30N 47°17' W 002°12'0 0.0
2017-Jul-13 08:00N 47°17' W 002°12'0 0.0
2017-Jul-13 07:30N 47°17' W 002°12'0 0.0
2017-Jul-13 07:00N 47°17' W 002°12'0 0.0
2017-Jul-13 06:29N 47°17' W 002°12'0 0.0
2017-Jul-13 06:00N 47°17' W 002°12'0 0.0
2017-Jul-13 05:30N 47°17' W 002°12'0 0.0
2017-Jul-13 05:00N 47°17' W 002°12'0 0.0
2017-Jul-13 04:29N 47°17' W 002°12'0 0.0
2017-Jul-13 04:00N 47°17' W 002°12'0 0.0
2017-Jul-13 03:30N 47°17' W 002°12'0 0.0
2017-Jul-13 03:00N 47°17' W 002°12'0 0.0
2017-Jul-13 02:30N 47°17' W 002°12'0 0.0
2017-Jul-13 02:00N 47°17' W 002°12'0 0.0
2017-Jul-13 01:30N 47°17' W 002°12'0 0.0
2017-Jul-13 01:00N 47°17' W 002°12'0 0.0
2017-Jul-13 00:30N 47°17' W 002°12'0 0.0
2017-Jul-13 00:00N 47°17' W 002°12'0 0.0
2017-Jul-12 23:30N 47°17' W 002°12'0 0.0
2017-Jul-12 23:00N 47°17' W 002°12'0 0.0
2017-Jul-12 22:30N 47°17' W 002°12'0 0.0
2017-Jul-12 22:00N 47°17' W 002°12'0 0.0
2017-Jul-12 21:30N 47°17' W 002°12'0 0.0
2017-Jul-12 21:00N 47°17' W 002°12'0 0.0
2017-Jul-12 20:30N 47°17' W 002°12'0 0.0
2017-Jul-12 20:01N 47°17' W 002°12'0 0.0
2017-Jul-12 19:30N 47°17' W 002°12'0 0.0
2017-Jul-12 19:00N 47°17' W 002°12'0 0.0
2017-Jul-12 18:30N 47°17' W 002°12'0 0.0
2017-Jul-12 18:00N 47°17' W 002°12'0 0.0
2017-Jul-12 17:30N 47°17' W 002°12'0 0.0
2017-Jul-12 17:00N 47°17' W 002°12'0 0.0
2017-Jul-12 16:30N 47°17' W 002°12'0 0.0
2017-Jul-12 16:00N 47°17' W 002°12'0 0.0
2017-Jul-12 15:30N 47°17' W 002°12'0 0.0
2017-Jul-12 15:00N 47°17' W 002°12'0 0.0
2017-Jul-12 14:00N 47°17' W 002°12'0 0.0
2017-Jul-12 13:30N 47°17' W 002°12'0 0.0
2017-Jul-12 13:00N 47°17' W 002°12'0 0.0
2017-Jul-12 12:30N 47°17' W 002°12'0 0.0
2017-Jul-12 12:00N 47°17' W 002°12'0 0.0
2017-Jul-12 11:30N 47°17' W 002°12'0 0.0
2017-Jul-12 11:00N 47°17' W 002°12'0 0.0
2017-Jul-12 10:30N 47°17' W 002°12'0 0.0
2017-Jul-12 10:00N 47°17' W 002°12'0 0.0
2017-Jul-12 09:30N 47°17' W 002°12'0 0.0
2017-Jul-12 09:00N 47°17' W 002°12'0 0.0
2017-Jul-12 08:30N 47°17' W 002°12'0 0.0
2017-Jul-12 08:00N 47°17' W 002°12'0 0.0
2017-Jul-12 07:30N 47°17' W 002°12'0 0.0
2017-Jul-12 07:00N 47°17' W 002°12'0 0.0
2017-Jul-12 06:29N 47°17' W 002°12'0 0.0
2017-Jul-12 06:00N 47°17' W 002°12'0 0.0
2017-Jul-12 05:30N 47°17' W 002°12'0 0.0
2017-Jul-12 05:00N 47°17' W 002°12'0 0.0
2017-Jul-12 04:30N 47°17' W 002°12'0 0.0
2017-Jul-12 04:00N 47°17' W 002°12'0 0.0
2017-Jul-12 03:30N 47°17' W 002°12'0 0.0
2017-Jul-12 02:58N 47°17' W 002°12'0 0.0
2017-Jul-12 02:30N 47°17' W 002°12'0 0.0
2017-Jul-12 02:00N 47°17' W 002°12'0 0.0
2017-Jul-12 01:30N 47°17' W 002°12'0 0.0
2017-Jul-12 01:00N 47°17' W 002°12'0 0.0
2017-Jul-12 00:30N 47°17' W 002°12'0 0.0
2017-Jul-12 00:00N 47°17' W 002°12'0 0.0
2017-Jul-11 23:30N 47°17' W 002°12'0 0.0
2017-Jul-11 23:00N 47°17' W 002°12'0 0.0
2017-Jul-11 22:30N 47°17' W 002°12'0 0.0
2017-Jul-11 22:00N 47°17' W 002°12'0 0.0
2017-Jul-11 21:30N 47°17' W 002°12'0 0.0
2017-Jul-11 21:00N 47°17' W 002°12'0 0.0
2017-Jul-11 20:30N 47°17' W 002°12'0 0.0
2017-Jul-11 20:00N 47°17' W 002°12'0 0.0
2017-Jul-11 19:30N 47°17' W 002°12'0 0.0
2017-Jul-11 19:00N 47°17' W 002°12'0 0.0
2017-Jul-11 18:30N 47°17' W 002°12'0 0.0
2017-Jul-11 18:00N 47°17' W 002°12'0 0.0
2017-Jul-11 17:31N 47°17' W 002°12'0 0.0
2017-Jul-11 17:00N 47°17' W 002°12'0 0.0
2017-Jul-11 16:30N 47°17' W 002°12'0 0.0
2017-Jul-11 16:00N 47°17' W 002°12'0 0.0
2017-Jul-11 15:31N 47°17' W 002°12'0 0.0
2017-Jul-11 14:57N 47°17' W 002°12'0 0.0
2017-Jul-11 14:31N 47°17' W 002°12'0 0.0
2017-Jul-11 14:01N 47°17' W 002°12'0 0.0
2017-Jul-11 13:30N 47°17' W 002°12'0 0.0
2017-Jul-11 13:01N 47°17' W 002°12'0 0.0
2017-Jul-11 12:29N 47°17' W 002°12'0 0.0
2017-Jul-11 12:01N 47°17' W 002°12'0 0.0
2017-Jul-11 11:30N 47°17' W 002°12'0 0.0
2017-Jul-11 11:00N 47°17' W 002°12'0 0.0
2017-Jul-11 10:31N 47°17' W 002°12'0 0.0
2017-Jul-11 10:00N 47°17' W 002°12'0 0.0
2017-Jul-11 09:31N 47°17' W 002°12'0 0.0
2017-Jul-11 09:00N 47°17' W 002°12'0 0.0
2017-Jul-11 08:29N 47°17' W 002°12'0 0.0
2017-Jul-11 08:00N 47°17' W 002°12'0 0.0
2017-Jul-11 07:31N 47°17' W 002°12'0 0.0
2017-Jul-11 07:01N 47°17' W 002°12'0 0.0
2017-Jul-11 06:30N 47°17' W 002°12'0 0.0
2017-Jul-11 06:00N 47°17' W 002°12'0 0.0
2017-Jul-11 05:31N 47°17' W 002°12'0 0.0
2017-Jul-11 05:00N 47°17' W 002°12'0 0.0
2017-Jul-11 04:31N 47°17' W 002°12'0 0.0
2017-Jul-11 04:01N 47°17' W 002°12'0 0.0
2017-Jul-11 03:31N 47°17' W 002°12'0 0.0
2017-Jul-11 03:01N 47°17' W 002°12'0 0.0
2017-Jul-11 02:30N 47°17' W 002°12'0 0.0
2017-Jul-11 02:00N 47°17' W 002°12'0 0.0
2017-Jul-11 01:31N 47°17' W 002°12'0 0.0
2017-Jul-11 01:01N 47°17' W 002°12'0 0.0
2017-Jul-11 00:31N 47°17' W 002°12'0 0.0
2017-Jul-11 00:01N 47°17' W 002°12'0 0.0
2017-Jul-10 23:31N 47°17' W 002°12'0 0.0
2017-Jul-10 23:01N 47°17' W 002°12'0 0.0
2017-Jul-10 22:31N 47°17' W 002°12'  
Track history (hours):
 
Tides and Currents Weather Stations Pressure Air Temp Water Temp Dewpoint Dewpoint Depression Visibility Wind Speed Wind Dir Waves Ship Positions

Michel Dsr

Last reported at 2017-Jul-20 22:31 UTC. Time now 2017-Jul-20 22:34 UTC.
Position N 47°18' W 002°07'.

Length 80 m; draft 6 m.

Type: Dredging. MMSI: 228344700.

Date/timePositionNaut miles runAvg speedWind from/ knotsBaromVisibWave heightAir tempDewpointWater temp
2017-Jul-20 22:31N 47°18' W 002°07'0 0.0
2017-Jul-20 22:00N 47°18' W 002°07'0 0.2
2017-Jul-20 21:30N 47°18' W 002°07'4 7.4
2017-Jul-20 21:00N 47°18' W 002°02'510.3
2017-Jul-20 20:30N 47°17' W 001°54'5 9.4
2017-Jul-20 20:00N 47°13' W 001°49'510.7
2017-Jul-20 19:30N 47°12' W 001°42'3 5.2
2017-Jul-20 19:00N 47°12' W 001°38'0 0.0
2017-Jul-20 18:31N 47°12' W 001°38'0 0.0
2017-Jul-20 18:01N 47°12' W 001°38'0 0.0
2017-Jul-20 17:30N 47°12' W 001°38'0 0.0
2017-Jul-20 17:00N 47°12' W 001°38'0 0.0
2017-Jul-20 16:30N 47°12' W 001°38'0 0.9
2017-Jul-20 16:00N 47°11' W 001°39'4 8.0
2017-Jul-20 15:30N 47°12' W 001°44'5 9.8
2017-Jul-20 15:00N 47°15' W 001°51'1111.3
2017-Jul-20 14:00N 47°18' W 002°07'611.6
2017-Jul-20 13:30N 47°15' W 002°14'611.7
2017-Jul-20 13:00N 47°10' W 002°18'4 8.7
2017-Jul-20 12:30N 47°06' W 002°21'1 1.4
2017-Jul-20 11:59N 47°06' W 002°20'1 1.7
2017-Jul-20 11:30N 47°05' W 002°21'1 0.7
2017-Jul-20 10:34N 47°06' W 002°22'0 3.2
2017-Jul-20 10:30N 47°06' W 002°22'0 0.3
2017-Jul-20 09:40N 47°06' W 002°22'0 2.6
2017-Jul-20 09:30N 47°06' W 002°22'0 0.6
2017-Jul-20 08:52N 47°06' W 002°22'1 0.6
2017-Jul-20 08:03N 47°06' W 002°21'0 8.9
2017-Jul-20 08:00N 47°07' W 002°21'4 7.4
2017-Jul-20 07:30N 47°10' W 002°19'612.5
2017-Jul-20 07:00N 47°15' W 002°13'2 3.2
2017-Jul-20 06:30N 47°16' W 002°12'0 0.0
2017-Jul-20 06:00N 47°16' W 002°12'0 0.4
2017-Jul-20 05:30N 47°17' W 002°12'0 0.3
2017-Jul-20 05:00N 47°17' W 002°12'0 0.0
2017-Jul-20 04:30N 47°17' W 002°12'0 0.0
2017-Jul-20 04:00N 47°17' W 002°12'0 0.0
2017-Jul-20 03:30N 47°17' W 002°12'0 0.0
2017-Jul-20 03:00N 47°17' W 002°12'0 0.0
2017-Jul-20 02:30N 47°17' W 002°12'0 0.0
2017-Jul-20 02:00N 47°17' W 002°12'0 0.0
2017-Jul-20 01:30N 47°17' W 002°12'0 0.0
2017-Jul-20 01:00N 47°17' W 002°12'0 0.0
2017-Jul-20 00:30N 47°17' W 002°12'0 0.0
2017-Jul-20 00:00N 47°17' W 002°12'0 0.0
2017-Jul-19 23:30N 47°17' W 002°12'0 0.0
2017-Jul-19 23:00N 47°17' W 002°12'0 0.0
2017-Jul-19 22:30N 47°17' W 002°12'0 0.0
2017-Jul-19 22:00N 47°17' W 002°12'0 0.0
2017-Jul-19 21:30N 47°17' W 002°12'0 0.0
2017-Jul-19 21:00N 47°17' W 002°12'0 0.0
2017-Jul-19 20:30N 47°17' W 002°12'0 0.0
2017-Jul-19 20:00N 47°17' W 002°12'0 0.0
2017-Jul-19 19:30N 47°17' W 002°12'0 0.0
2017-Jul-19 19:00N 47°17' W 002°12'0 0.0
2017-Jul-19 18:30N 47°17' W 002°12'0 0.0
2017-Jul-19 18:01N 47°17' W 002°12'0 0.0
2017-Jul-19 17:30N 47°17' W 002°12'0 0.0
2017-Jul-19 17:00N 47°17' W 002°12'0 0.0
2017-Jul-19 16:30N 47°17' W 002°12'0 0.0
2017-Jul-19 16:00N 47°17' W 002°12'0 0.0
2017-Jul-19 15:30N 47°17' W 002°12'0 0.0
2017-Jul-19 15:00N 47°17' W 002°12'0 0.0
2017-Jul-19 14:30N 47°17' W 002°12'0 0.0
2017-Jul-19 14:00N 47°17' W 002°12'0 0.0
2017-Jul-19 13:30N 47°17' W 002°12'0 0.0
2017-Jul-19 13:00N 47°17' W 002°12'0 0.0
2017-Jul-19 12:30N 47°17' W 002°12'0 0.0
2017-Jul-19 12:00N 47°17' W 002°12'0 0.0
2017-Jul-19 11:30N 47°17' W 002°12'0 0.0
2017-Jul-19 11:00N 47°17' W 002°12'0 0.0
2017-Jul-19 10:30N 47°17' W 002°12'0 0.0
2017-Jul-19 10:00N 47°17' W 002°12'0 0.0
2017-Jul-19 09:30N 47°17' W 002°12'0 0.0
2017-Jul-19 09:00N 47°17' W 002°12'0 0.0
2017-Jul-19 08:30N 47°17' W 002°12'0 0.0
2017-Jul-19 08:00N 47°17' W 002°12'0 0.0
2017-Jul-19 07:30N 47°17' W 002°12'0 0.0
2017-Jul-19 07:00N 47°17' W 002°12'0 0.0
2017-Jul-19 06:30N 47°17' W 002°12'0 0.0
2017-Jul-19 06:00N 47°17' W 002°12'0 0.0
2017-Jul-19 05:30N 47°17' W 002°12'0 0.0
2017-Jul-19 05:01N 47°17' W 002°12'0 0.0
2017-Jul-19 04:30N 47°17' W 002°12'0 0.0
2017-Jul-19 04:00N 47°17' W 002°12'0 0.0
2017-Jul-19 03:30N 47°17' W 002°12'0 0.0
2017-Jul-19 03:00N 47°17' W 002°12'0 0.0
2017-Jul-19 02:30N 47°17' W 002°12'0 0.0
2017-Jul-19 02:00N 47°17' W 002°12'0 0.0
2017-Jul-19 01:30N 47°17' W 002°12'0 0.0
2017-Jul-19 01:00N 47°17' W 002°12'0 0.0
2017-Jul-19 00:30N 47°17' W 002°12'0 0.0
2017-Jul-19 00:00N 47°17' W 002°12'0 0.0
2017-Jul-18 23:30N 47°17' W 002°12'0 0.0
2017-Jul-18 23:00N 47°17' W 002°12'0 0.0
2017-Jul-18 22:30N 47°17' W 002°12'0 0.0
2017-Jul-18 22:00N 47°17' W 002°12'0 0.0
2017-Jul-18 21:30N 47°17' W 002°12'0 0.0
2017-Jul-18 21:00N 47°17' W 002°12'0 0.0
2017-Jul-18 20:30N 47°17' W 002°12'0 0.0
2017-Jul-18 20:00N 47°17' W 002°12'0 0.0
2017-Jul-18 19:31N 47°17' W 002°12'0 0.0
2017-Jul-18 19:00N 47°17' W 002°12'0 0.0
2017-Jul-18 18:30N 47°17' W 002°12'0 0.0
2017-Jul-18 18:00N 47°17' W 002°12'0 0.0
2017-Jul-18 17:30N 47°17' W 002°12'0 0.0
2017-Jul-18 17:00N 47°17' W 002°12'0 0.0
2017-Jul-18 16:30N 47°17' W 002°12'0 0.0
2017-Jul-18 16:00N 47°17' W 002°12'0 0.0
2017-Jul-18 15:30N 47°17' W 002°12'0 0.0
2017-Jul-18 14:57N 47°17' W 002°12'0 0.0
2017-Jul-18 13:58N 47°17' W 002°12'0 0.0
2017-Jul-18 05:36N 47°17' W 002°12'0 0.0
2017-Jul-18 05:22N 47°17' W 002°12'0 0.0
2017-Jul-18 05:00N 47°17' W 002°12'0 0.0
2017-Jul-18 02:26N 47°17' W 002°12'0 0.0
2017-Jul-18 02:00N 47°17' W 002°12'0 0.0
2017-Jul-18 01:30N 47°17' W 002°12'0 0.0
2017-Jul-18 01:00N 47°17' W 002°12'0 0.0
2017-Jul-18 00:30N 47°17' W 002°12'0 0.0
2017-Jul-18 00:00N 47°17' W 002°12'0 0.0
2017-Jul-17 23:31N 47°17' W 002°12'0 0.0
2017-Jul-17 23:01N 47°17' W 002°12'0 0.0
2017-Jul-17 22:31N 47°17' W 002°12'0 0.0
2017-Jul-17 22:01N 47°17' W 002°12'0 0.0
2017-Jul-17 21:30N 47°17' W 002°12'0 0.0
2017-Jul-17 21:00N 47°17' W 002°12'0 0.0
2017-Jul-17 20:30N 47°17' W 002°12'0 0.0
2017-Jul-17 19:59N 47°17' W 002°12'0 0.0
2017-Jul-17 19:28N 47°17' W 002°12'0 0.0
2017-Jul-17 19:00N 47°17' W 002°12'0 0.0
2017-Jul-17 18:28N 47°17' W 002°12'0 0.0
2017-Jul-17 17:56N 47°17' W 002°12'0 0.0
2017-Jul-17 17:17N 47°17' W 002°12'0 0.0
2017-Jul-17 15:11N 47°17' W 002°12'0 0.0
2017-Jul-17 14:56N 47°17' W 002°12'0 0.0
2017-Jul-17 14:30N 47°17' W 002°12'0 0.0
2017-Jul-17 14:00N 47°17' W 002°12'0 0.0
2017-Jul-17 13:29N 47°17' W 002°12'0 0.0
2017-Jul-17 12:57N 47°17' W 002°12'0 0.0
2017-Jul-17 12:26N 47°17' W 002°12'0 0.0
2017-Jul-17 11:59N 47°17' W 002°12'0 0.0
2017-Jul-17 11:29N 47°17' W 002°12'0 0.0
2017-Jul-17 10:59N 47°17' W 002°12'0 0.0
2017-Jul-17 10:29N 47°17' W 002°12'0 0.0
2017-Jul-17 10:00N 47°17' W 002°12'0 0.0
2017-Jul-17 09:30N 47°17' W 002°12'0 0.0
2017-Jul-17 09:00N 47°17' W 002°12'0 0.0
2017-Jul-17 08:30N 47°17' W 002°12'0 0.0
2017-Jul-17 08:00N 47°17' W 002°12'0 0.0
2017-Jul-17 07:30N 47°17' W 002°12'0 0.0
2017-Jul-17 07:00N 47°17' W 002°12'0 0.0
2017-Jul-17 06:30N 47°17' W 002°12'0 0.0
2017-Jul-17 06:00N 47°17' W 002°12'0 0.0
2017-Jul-17 05:30N 47°17' W 002°12'0 0.0
2017-Jul-17 05:00N 47°17' W 002°12'0 0.0
2017-Jul-17 04:30N 47°17' W 002°12'0 0.0
2017-Jul-17 04:00N 47°17' W 002°12'0 0.0
2017-Jul-17 03:30N 47°17' W 002°12'0 0.0
2017-Jul-17 03:00N 47°17' W 002°12'0 0.0
2017-Jul-17 02:30N 47°17' W 002°12'0 0.0
2017-Jul-17 02:00N 47°17' W 002°12'0 0.0
2017-Jul-17 01:30N 47°17' W 002°12'0 0.0
2017-Jul-17 01:00N 47°17' W 002°12'0 0.0
2017-Jul-17 00:30N 47°17' W 002°12'0 0.0
2017-Jul-17 00:00N 47°17' W 002°12'0 0.0
2017-Jul-16 23:30N 47°17' W 002°12'0 0.0
2017-Jul-16 23:00N 47°17' W 002°12'0 0.0
2017-Jul-16 22:30N 47°17' W 002°12'0 0.0
2017-Jul-16 22:00N 47°17' W 002°12'0 0.0
2017-Jul-16 21:30N 47°17' W 002°12'0 0.0
2017-Jul-16 21:00N 47°17' W 002°12'0 0.0
2017-Jul-16 20:30N 47°17' W 002°12'0 0.0
2017-Jul-16 20:00N 47°17' W 002°12'0 0.0
2017-Jul-16 19:30N 47°17' W 002°12'0 0.0
2017-Jul-16 19:00N 47°17' W 002°12'0 0.0
2017-Jul-16 18:30N 47°17' W 002°12'0 0.0
2017-Jul-16 18:00N 47°17' W 002°12'0 0.0
2017-Jul-16 17:30N 47°17' W 002°12'0 0.0
2017-Jul-16 17:00N 47°17' W 002°12'0 0.0
2017-Jul-16 16:30N 47°17' W 002°12'0 0.0
2017-Jul-16 16:00N 47°17' W 002°12'0 0.0
2017-Jul-16 15:30N 47°17' W 002°12'0 0.0
2017-Jul-16 15:00N 47°17' W 002°12'0 0.0
2017-Jul-16 14:30N 47°17' W 002°12'0 0.0
2017-Jul-16 14:00N 47°17' W 002°12'0 0.0
2017-Jul-16 13:30N 47°17' W 002°12'0 0.0
2017-Jul-16 13:00N 47°17' W 002°12'0 0.0
2017-Jul-16 12:30N 47°17' W 002°12'0 0.0
2017-Jul-16 12:00N 47°17' W 002°12'0 0.0
2017-Jul-16 11:30N 47°17' W 002°12'0 0.0
2017-Jul-16 11:00N 47°17' W 002°12'0 0.0
2017-Jul-16 10:30N 47°17' W 002°12'0 0.0
2017-Jul-16 10:00N 47°17' W 002°12'0 0.0
2017-Jul-16 09:30N 47°17' W 002°12'0 0.0
2017-Jul-16 09:00N 47°17' W 002°12'0 0.0
2017-Jul-16 08:30N 47°17' W 002°12'0 0.0
2017-Jul-16 08:00N 47°17' W 002°12'0 0.0
2017-Jul-16 07:30N 47°17' W 002°12'0 0.0
2017-Jul-16 07:00N 47°17' W 002°12'0 0.0
2017-Jul-16 06:31N 47°17' W 002°12'0 0.0
2017-Jul-16 06:00N 47°17' W 002°12'0 0.0
2017-Jul-16 05:30N 47°17' W 002°12'0 0.0
2017-Jul-16 05:00N 47°17' W 002°12'0 0.0
2017-Jul-16 04:30N 47°17' W 002°12'0 0.0
2017-Jul-16 04:00N 47°17' W 002°12'0 0.0
2017-Jul-16 03:30N 47°17' W 002°12'0 0.0
2017-Jul-16 03:00N 47°17' W 002°12'0 0.0
2017-Jul-16 02:30N 47°17' W 002°12'0 0.0
2017-Jul-16 02:00N 47°17' W 002°12'0 0.0
2017-Jul-16 01:30N 47°17' W 002°12'0 0.0
2017-Jul-16 01:00N 47°17' W 002°12'0 0.0
2017-Jul-16 00:30N 47°17' W 002°12'0 0.0
2017-Jul-15 23:58N 47°17' W 002°12'0 0.0
2017-Jul-15 23:30N 47°17' W 002°12'0 0.0
2017-Jul-15 23:00N 47°17' W 002°12'0 0.0
2017-Jul-15 22:30N 47°17' W 002°12'0 0.0
2017-Jul-15 22:00N 47°17' W 002°12'0 0.0
2017-Jul-15 21:30N 47°17' W 002°12'0 0.0
2017-Jul-15 21:00N 47°17' W 002°12'0 0.0
2017-Jul-15 20:30N 47°17' W 002°12'0 0.0
2017-Jul-15 20:00N 47°17' W 002°12'0 0.0
2017-Jul-15 19:30N 47°17' W 002°12'0 0.0
2017-Jul-15 19:00N 47°17' W 002°12'0 0.0
2017-Jul-15 18:30N 47°17' W 002°12'0 0.0
2017-Jul-15 18:00N 47°17' W 002°12'0 0.0
2017-Jul-15 17:30N 47°17' W 002°12'0 0.0
2017-Jul-15 17:00N 47°17' W 002°12'0 0.0
2017-Jul-15 16:30N 47°17' W 002°12'0 0.0
2017-Jul-15 16:00N 47°17' W 002°12'0 0.0
2017-Jul-15 15:30N 47°17' W 002°12'0 0.0
2017-Jul-15 15:00N 47°17' W 002°12'0 0.0
2017-Jul-15 14:00N 47°17' W 002°12'0 0.0
2017-Jul-15 13:30N 47°17' W 002°12'0 0.0
2017-Jul-15 13:00N 47°17' W 002°12'0 0.0
2017-Jul-15 12:30N 47°17' W 002°12'0 0.0
2017-Jul-15 12:00N 47°17' W 002°12'0 0.0
2017-Jul-15 11:30N 47°17' W 002°12'0 0.0
2017-Jul-15 11:00N 47°17' W 002°12'0 0.0
2017-Jul-15 10:30N 47°17' W 002°12'0 0.0
2017-Jul-15 10:00N 47°17' W 002°12'0 0.0
2017-Jul-15 09:30N 47°17' W 002°12'0 0.0
2017-Jul-15 09:01N 47°17' W 002°12'0 0.0
2017-Jul-15 08:30N 47°17' W 002°12'0 0.0
2017-Jul-15 08:01N 47°17' W 002°12'0 0.0
2017-Jul-15 07:30N 47°17' W 002°12'0 0.0
2017-Jul-15 07:01N 47°17' W 002°12'0 0.0
2017-Jul-15 06:31N 47°17' W 002°12'0 0.0
2017-Jul-15 06:00N 47°17' W 002°12'0 0.0
2017-Jul-15 05:31N 47°17' W 002°12'0 0.0
2017-Jul-15 05:00N 47°17' W 002°12'0 0.0
2017-Jul-15 04:30N 47°17' W 002°12'0 0.0
2017-Jul-15 04:01N 47°17' W 002°12'0 0.0
2017-Jul-15 03:30N 47°17' W 002°12'0 0.0
2017-Jul-15 03:00N 47°17' W 002°12'0 0.0
2017-Jul-15 02:30N 47°17' W 002°12'0 0.0
2017-Jul-15 02:00N 47°17' W 002°12'0 0.0
2017-Jul-15 01:30N 47°17' W 002°12'0 0.0
2017-Jul-15 01:01N 47°17' W 002°12'0 0.0
2017-Jul-15 00:31N 47°17' W 002°12'0 0.0
2017-Jul-15 00:00N 47°17' W 002°12'0 0.0
2017-Jul-14 23:31N 47°17' W 002°12'0 0.0
2017-Jul-14 23:01N 47°17' W 002°12'0 0.0
2017-Jul-14 22:31N 47°17' W 002°12'0 0.0
2017-Jul-14 22:01N 47°17' W 002°12'0 0.0
2017-Jul-14 21:31N 47°17' W 002°12'0 0.0
2017-Jul-14 21:01N 47°17' W 002°12'0 0.0
2017-Jul-14 20:31N 47°17' W 002°12'0 0.0
2017-Jul-14 20:01N 47°17' W 002°12'0 0.0
2017-Jul-14 19:31N 47°17' W 002°12'0 0.0
2017-Jul-14 19:01N 47°17' W 002°12'0 0.0
2017-Jul-14 18:31N 47°17' W 002°12'0 0.0
2017-Jul-14 18:01N 47°17' W 002°12'0 0.0
2017-Jul-14 17:30N 47°17' W 002°12'0 0.0
2017-Jul-14 17:01N 47°17' W 002°12'0 0.0
2017-Jul-14 16:31N 47°17' W 002°12'0 0.0
2017-Jul-14 16:01N 47°17' W 002°12'0 0.0
2017-Jul-14 15:31N 47°17' W 002°12'0 0.0
2017-Jul-14 15:00N 47°17' W 002°12'0 0.0
2017-Jul-14 14:30N 47°17' W 002°12'0 0.0
2017-Jul-14 14:00N 47°17' W 002°12'0 0.0
2017-Jul-14 13:31N 47°17' W 002°12'0 0.0
2017-Jul-14 13:01N 47°17' W 002°12'0 0.0
2017-Jul-14 12:30N 47°17' W 002°12'0 0.0
2017-Jul-14 12:00N 47°17' W 002°12'0 0.0
2017-Jul-14 11:30N 47°17' W 002°12'0 0.0
2017-Jul-14 11:00N 47°17' W 002°12'0 0.0
2017-Jul-14 10:30N 47°17' W 002°12'0 0.0
2017-Jul-14 10:00N 47°17' W 002°12'0 0.0
2017-Jul-14 09:30N 47°17' W 002°12'0 0.0
2017-Jul-14 09:00N 47°17' W 002°12'0 0.0
2017-Jul-14 08:31N 47°17' W 002°12'0 0.0
2017-Jul-14 08:00N 47°17' W 002°12'0 0.0
2017-Jul-14 07:31N 47°17' W 002°12'0 0.0
2017-Jul-14 07:00N 47°17' W 002°12'0 0.0
2017-Jul-14 06:30N 47°17' W 002°12'0 0.0
2017-Jul-14 06:00N 47°17' W 002°12'0 0.0
2017-Jul-14 05:30N 47°17' W 002°12'0 0.0
2017-Jul-14 05:00N 47°17' W 002°12'0 0.0
2017-Jul-14 04:30N 47°17' W 002°12'0 0.0
2017-Jul-14 04:00N 47°17' W 002°12'0 0.0
2017-Jul-14 03:31N 47°17' W 002°12'0 0.0
2017-Jul-14 03:00N 47°17' W 002°12'0 0.0
2017-Jul-14 02:30N 47°17' W 002°12'0 0.0
2017-Jul-14 02:00N 47°17' W 002°12'0 0.0
2017-Jul-14 01:30N 47°17' W 002°12'0 0.0
2017-Jul-14 01:00N 47°17' W 002°12'0 0.0
2017-Jul-14 00:30N 47°17' W 002°12'0 0.0
2017-Jul-14 00:00N 47°17' W 002°12'0 0.0
2017-Jul-13 23:30N 47°17' W 002°12'0 0.0
2017-Jul-13 23:00N 47°17' W 002°12'0 0.0
2017-Jul-13 22:31N 47°17' W 002°12'0 0.0
2017-Jul-13 22:00N 47°17' W 002°12'0 0.0
2017-Jul-13 21:30N 47°17' W 002°12'0 0.0
2017-Jul-13 21:00N 47°17' W 002°12'0 0.0
2017-Jul-13 20:30N 47°17' W 002°12'0 0.0
2017-Jul-13 20:01N 47°17' W 002°12'0 0.0
2017-Jul-13 19:30N 47°17' W 002°12'0 0.0
2017-Jul-13 19:00N 47°17' W 002°12'0 0.0
2017-Jul-13 18:30N 47°17' W 002°12'0 0.0
2017-Jul-13 18:00N 47°17' W 002°12'0 0.0
2017-Jul-13 17:30N 47°17' W 002°12'0 0.0
2017-Jul-13 17:00N 47°17' W 002°12'0 0.0
2017-Jul-13 16:30N 47°17' W 002°12'0 0.0
2017-Jul-13 16:00N 47°17' W 002°12'0 0.0
2017-Jul-13 15:30N 47°17' W 002°12'0 0.0
2017-Jul-13 15:00N 47°17' W 002°12'0 0.0
2017-Jul-13 14:30N 47°17' W 002°12'0 0.0
2017-Jul-13 14:00N 47°17' W 002°12'0 0.0
2017-Jul-13 13:30N 47°17' W 002°12'0 0.0
2017-Jul-13 13:00N 47°17' W 002°12'0 0.0
2017-Jul-13 12:30N 47°17' W 002°12'0 0.0
2017-Jul-13 12:00N 47°17' W 002°12'0 0.0
2017-Jul-13 11:30N 47°17' W 002°12'0 0.0
2017-Jul-13 11:00N 47°17' W 002°12'0 0.0
2017-Jul-13 10:30N 47°17' W 002°12'0 0.0
2017-Jul-13 10:00N 47°17' W 002°12'0 0.0
2017-Jul-13 09:30N 47°17' W 002°12'0 0.0
2017-Jul-13 09:00N 47°17' W 002°12'0 0.0
2017-Jul-13 08:30N 47°17' W 002°12'0 0.0
2017-Jul-13 08:00N 47°17' W 002°12'0 0.0
2017-Jul-13 07:30N 47°17' W 002°12'0 0.0
2017-Jul-13 07:00N 47°17' W 002°12'0 0.0
2017-Jul-13 06:29N 47°17' W 002°12'0 0.0
2017-Jul-13 06:00N 47°17' W 002°12'0 0.0
2017-Jul-13 05:30N 47°17' W 002°12'0 0.0
2017-Jul-13 05:00N 47°17' W 002°12'0 0.0
2017-Jul-13 04:29N 47°17' W 002°12'0 0.0
2017-Jul-13 04:00N 47°17' W 002°12'0 0.0
2017-Jul-13 03:30N 47°17' W 002°12'0 0.0
2017-Jul-13 03:00N 47°17' W 002°12'0 0.0
2017-Jul-13 02:30N 47°17' W 002°12'0 0.0
2017-Jul-13 02:00N 47°17' W 002°12'0 0.0
2017-Jul-13 01:30N 47°17' W 002°12'0 0.0
2017-Jul-13 01:00N 47°17' W 002°12'0 0.0
2017-Jul-13 00:30N 47°17' W 002°12'0 0.0
2017-Jul-13 00:00N 47°17' W 002°12'0 0.0
2017-Jul-12 23:30N 47°17' W 002°12'0 0.0
2017-Jul-12 23:00N 47°17' W 002°12'0 0.0
2017-Jul-12 22:30N 47°17' W 002°12'0 0.0
2017-Jul-12 22:00N 47°17' W 002°12'0 0.0
2017-Jul-12 21:30N 47°17' W 002°12'0 0.0
2017-Jul-12 21:00N 47°17' W 002°12'0 0.0
2017-Jul-12 20:30N 47°17' W 002°12'0 0.0
2017-Jul-12 20:01N 47°17' W 002°12'0 0.0
2017-Jul-12 19:30N 47°17' W 002°12'0 0.0
2017-Jul-12 19:00N 47°17' W 002°12'0 0.0
2017-Jul-12 18:30N 47°17' W 002°12'0 0.0
2017-Jul-12 18:00N 47°17' W 002°12'0 0.0
2017-Jul-12 17:30N 47°17' W 002°12'0 0.0
2017-Jul-12 17:00N 47°17' W 002°12'0 0.0
2017-Jul-12 16:30N 47°17' W 002°12'0 0.0
2017-Jul-12 16:00N 47°17' W 002°12'0 0.0
2017-Jul-12 15:30N 47°17' W 002°12'0 0.0
2017-Jul-12 15:00N 47°17' W 002°12'0 0.0
2017-Jul-12 14:00N 47°17' W 002°12'0 0.0
2017-Jul-12 13:30N 47°17' W 002°12'0 0.0
2017-Jul-12 13:00N 47°17' W 002°12'0 0.0
2017-Jul-12 12:30N 47°17' W 002°12'0 0.0
2017-Jul-12 12:00N 47°17' W 002°12'0 0.0
2017-Jul-12 11:30N 47°17' W 002°12'0 0.0
2017-Jul-12 11:00N 47°17' W 002°12'0 0.0
2017-Jul-12 10:30N 47°17' W 002°12'0 0.0
2017-Jul-12 10:00N 47°17' W 002°12'0 0.0
2017-Jul-12 09:30N 47°17' W 002°12'0 0.0
2017-Jul-12 09:00N 47°17' W 002°12'0 0.0
2017-Jul-12 08:30N 47°17' W 002°12'0 0.0
2017-Jul-12 08:00N 47°17' W 002°12'0 0.0
2017-Jul-12 07:30N 47°17' W 002°12'0 0.0
2017-Jul-12 07:00N 47°17' W 002°12'0 0.0
2017-Jul-12 06:29N 47°17' W 002°12'0 0.0
2017-Jul-12 06:00N 47°17' W 002°12'0 0.0
2017-Jul-12 05:30N 47°17' W 002°12'0 0.0
2017-Jul-12 05:00N 47°17' W 002°12'0 0.0
2017-Jul-12 04:30N 47°17' W 002°12'0 0.0
2017-Jul-12 04:00N 47°17' W 002°12'0 0.0
2017-Jul-12 03:30N 47°17' W 002°12'0 0.0
2017-Jul-12 02:58N 47°17' W 002°12'0 0.0
2017-Jul-12 02:30N 47°17' W 002°12'0 0.0
2017-Jul-12 02:00N 47°17' W 002°12'0 0.0
2017-Jul-12 01:30N 47°17' W 002°12'0 0.0
2017-Jul-12 01:00N 47°17' W 002°12'0 0.0
2017-Jul-12 00:30N 47°17' W 002°12'0 0.0
2017-Jul-12 00:00N 47°17' W 002°12'0 0.0
2017-Jul-11 23:30N 47°17' W 002°12'0 0.0
2017-Jul-11 23:00N 47°17' W 002°12'0 0.0
2017-Jul-11 22:30N 47°17' W 002°12'0 0.0
2017-Jul-11 22:00N 47°17' W 002°12'0 0.0
2017-Jul-11 21:30N 47°17' W 002°12'0 0.0
2017-Jul-11 21:00N 47°17' W 002°12'0 0.0
2017-Jul-11 20:30N 47°17' W 002°12'0 0.0
2017-Jul-11 20:00N 47°17' W 002°12'0 0.0
2017-Jul-11 19:30N 47°17' W 002°12'0 0.0
2017-Jul-11 19:00N 47°17' W 002°12'0 0.0
2017-Jul-11 18:30N 47°17' W 002°12'0 0.0
2017-Jul-11 18:00N 47°17' W 002°12'0 0.0
2017-Jul-11 17:31N 47°17' W 002°12'0 0.0
2017-Jul-11 17:00N 47°17' W 002°12'0 0.0
2017-Jul-11 16:30N 47°17' W 002°12'0 0.0
2017-Jul-11 16:00N 47°17' W 002°12'0 0.0
2017-Jul-11 15:31N 47°17' W 002°12'0 0.0
2017-Jul-11 14:57N 47°17' W 002°12'0 0.0
2017-Jul-11 14:31N 47°17' W 002°12'0 0.0
2017-Jul-11 14:01N 47°17' W 002°12'0 0.0
2017-Jul-11 13:30N 47°17' W 002°12'0 0.0
2017-Jul-11 13:01N 47°17' W 002°12'0 0.0
2017-Jul-11 12:29N 47°17' W 002°12'0 0.0
2017-Jul-11 12:01N 47°17' W 002°12'0 0.0
2017-Jul-11 11:30N 47°17' W 002°12'0 0.0
2017-Jul-11 11:00N 47°17' W 002°12'0 0.0
2017-Jul-11 10:31N 47°17' W 002°12'0 0.0
2017-Jul-11 10:00N 47°17' W 002°12'0 0.0
2017-Jul-11 09:31N 47°17' W 002°12'0 0.0
2017-Jul-11 09:00N 47°17' W 002°12'0 0.0
2017-Jul-11 08:29N 47°17' W 002°12'0 0.0
2017-Jul-11 08:00N 47°17' W 002°12'0 0.0
2017-Jul-11 07:31N 47°17' W 002°12'0 0.0
2017-Jul-11 07:01N 47°17' W 002°12'0 0.0
2017-Jul-11 06:30N 47°17' W 002°12'0 0.0
2017-Jul-11 06:00N 47°17' W 002°12'0 0.0
2017-Jul-11 05:31N 47°17' W 002°12'0 0.0
2017-Jul-11 05:00N 47°17' W 002°12'0 0.0
2017-Jul-11 04:31N 47°17' W 002°12'0 0.0
2017-Jul-11 04:01N 47°17' W 002°12'0 0.0
2017-Jul-11 03:31N 47°17' W 002°12'0 0.0
2017-Jul-11 03:01N 47°17' W 002°12'0 0.0
2017-Jul-11 02:30N 47°17' W 002°12'0 0.0
2017-Jul-11 02:00N 47°17' W 002°12'0 0.0
2017-Jul-11 01:31N 47°17' W 002°12'0 0.0
2017-Jul-11 01:01N 47°17' W 002°12'0 0.0
2017-Jul-11 00:31N 47°17' W 002°12'0 0.0
2017-Jul-11 00:01N 47°17' W 002°12'0 0.0
2017-Jul-10 23:31N 47°17' W 002°12'0 0.0
2017-Jul-10 23:01N 47°17' W 002°12'0 0.0
2017-Jul-10 22:31N 47°17' W 002°12'  

Dump ship's entire track history